Terminal Aerodrome Forecast
Issued by NWS

Home | Current Version | Previous Version | Text Only | Print | Product List | Glossary On
Versions: 1 2 3 4 5 6 7 8 9 10 11 12 13 14 15 16
000
FTUS45 KPIH 310520
TAFSUN
TAF
KSUN 310520Z 3106/0106 31010KT P6SM FEW120
     FM311800 15007KT P6SM SCT120
     FM312000 24012G22KT P6SM SCT120
     FM010300 31008KT P6SM SKC=

USA.gov is the U.S. government's official web portal to all federal, state and local government web resources and services.